Time,TemperatureF,DewpointF,PressureIn,WindDirection,WindDirectionDegrees,WindSpeedMPH,WindSpeedGustMPH,Humidity,HourlyPrecipIn,Conditions,Clouds,dailyrainin,SoftwareType,DateUTC
2013-05-02 00:01:00,56.7,54.1,29.67,East,97,0.0,0.0,91,0.00,RA,,0.00,WeatherDisplay:10.37,2013-05-02 04:01:00,
2013-05-02 00:02:00,56.7,54.1,29.67,East,97,0.0,0.0,91,0.00,RA,,0.00,WeatherDisplay:10.37,2013-05-02 04:02:00,
2013-05-02 00:07:00,56.7,54.1,29.67,East,97,0.0,0.0,91,0.00,RA,,0.00,WeatherDisplay:10.37,2013-05-02 04:07:00,
2013-05-02 00:12:00,56.7,54.1,29.67,North,11,0.0,0.0,91,0.00,CLR,,0.00,WeatherDisplay:10.37,2013-05-02 04:12:00,
2013-05-02 00:17:00,56.7,54.1,29.67,North,11,0.0,0.0,91,0.00,CLR,,0.00,WeatherDisplay:10.37,2013-05-02 04:17:00,
2013-05-02 00:22:00,56.7,54.1,29.67,ENE,58,0.0,0.0,91,0.00,CLR,,0.00,WeatherDisplay:10.37,2013-05-02 04:22:00,
2013-05-02 00:27:00,56.7,54.1,29.67,NE,41,1.1,1.1,91,0.00,CLR,,0.00,WeatherDisplay:10.37,2013-05-02 04:27:00,
2013-05-02 00:32:00,56.7,54.1,29.67,ENE,76,0.0,0.0,91,0.00,CLR,,0.00,WeatherDisplay:10.37,2013-05-02 04:32:00,
2013-05-02 00:37:00,56.7,54.1,29.67,East,82,2.3,2.3,91,0.00,CLR,,0.00,WeatherDisplay:10.37,2013-05-02 04:37:00,
2013-05-02 00:42:00,56.6,53.7,29.67,East,82,2.3,2.3,90,0.00,CLR,,0.00,WeatherDisplay:10.37,2013-05-02 04:42:00,
2013-05-02 00:47:00,56.6,53.7,29.67,NE,54,2.3,2.3,90,0.00,CLR,,0.00,WeatherDisplay:10.37,2013-05-02 04:47:00,
2013-05-02 00:52:00,56.6,53.7,29.67,ESE,102,3.5,0.0,90,0.00,CLR,,0.00,WeatherDisplay:10.37,2013-05-02 04:52:00,
2013-05-02 00:57:00,56.6,53.7,29.67,ESE,102,0.0,0.0,90,0.00,CLR,,0.00,WeatherDisplay:10.37,2013-05-02 04:57:00,
2013-05-02 01:02:00,56.6,53.7,29.67,NNE,23,0.0,0.0,90,0.00,CLR,,0.00,WeatherDisplay:10.37,2013-05-02 05:02:00,
2013-05-02 01:07:00,56.6,53.7,29.67,NNE,25,0.0,0.0,90,0.00,CLR,,0.00,WeatherDisplay:10.37,2013-05-02 05:07:00,
2013-05-02 01:12:00,56.6,53.7,29.66,NNE,32,3.5,3.5,90,0.00,CLR,,0.00,WeatherDisplay:10.37,2013-05-02 05:12:00,
2013-05-02 01:17:00,56.6,53.7,29.66,NNE,27,0.0,0.1,90,0.00,CLR,,0.00,WeatherDisplay:10.37,2013-05-02 05:17:00,
2013-05-02 01:22:00,56.6,53.7,29.66,ESE,116,3.5,3.5,90,0.00,CLR,,0.00,WeatherDisplay:10.37,2013-05-02 05:22:00,
2013-05-02 01:27:00,56.5,53.6,29.66,ENE,76,0.0,0.0,90,0.00,CLR,,0.00,WeatherDisplay:10.37,2013-05-02 05:27:00,
2013-05-02 01:32:00,56.5,53.6,29.66,ENE,61,3.5,3.5,90,0.00,CLR,,0.00,WeatherDisplay:10.37,2013-05-02 05:32:00,
2013-05-02 01:37:00,56.5,53.6,29.66,East,88,3.5,3.5,90,0.00,CLR,,0.00,WeatherDisplay:10.37,2013-05-02 05:37:00,
2013-05-02 01:42:00,56.5,53.6,29.66,ESE,109,0.0,0.4,90,0.00,CLR,,0.00,WeatherDisplay:10.37,2013-05-02 05:42:00,
2013-05-02 01:47:00,56.5,53.6,29.66,NE,44,5.8,5.8,90,0.00,CLR,,0.00,WeatherDisplay:10.37,2013-05-02 05:47:00,
2013-05-02 01:52:00,56.5,53.6,29.66,ESE,103,3.5,3.5,90,0.00,CLR,,0.00,WeatherDisplay:10.37,2013-05-02 05:52:00,
2013-05-02 01:57:00,56.5,53.6,29.65,East,89,3.5,3.5,90,0.00,CLR,,0.00,WeatherDisplay:10.37,2013-05-02 05:57:00,
2013-05-02 02:02:00,56.3,53.4,29.65,East,88,0.0,0.0,90,0.00,CLR,,0.00,WeatherDisplay:10.37,2013-05-02 06:02:00,
2013-05-02 02:07:00,56.3,53.4,29.65,East,83,0.0,0.0,90,0.00,CLR,,0.00,WeatherDisplay:10.37,2013-05-02 06:07:00,
2013-05-02 02:12:00,56.3,53.4,29.65,ENE,72,0.0,0.0,90,0.00,CLR,,0.00,WeatherDisplay:10.37,2013-05-02 06:12:00,
2013-05-02 02:17:00,56.3,53.4,29.65,NNE,31,3.5,3.5,90,0.00,CLR,,0.00,WeatherDisplay:10.37,2013-05-02 06:17:00,
2013-05-02 02:22:00,56.3,53.7,29.65,East,99,3.5,3.5,91,0.00,CLR,,0.00,WeatherDisplay:10.37,2013-05-02 06:22:00,
2013-05-02 02:27:00,56.2,53.6,29.65,NE,45,5.8,5.8,91,0.00,CLR,,0.00,WeatherDisplay:10.37,2013-05-02 06:27:00,
2013-05-02 02:32:00,56.2,53.6,29.65,ESE,123,3.5,3.5,91,0.00,CLR,,0.00,WeatherDisplay:10.37,2013-05-02 06:32:00,
2013-05-02 02:37:00,56.2,53.6,29.65,ESE,109,0.0,0.0,91,0.00,CLR,,0.00,WeatherDisplay:10.37,2013-05-02 06:37:00,
2013-05-02 02:42:00,56.2,53.6,29.65,NE,56,0.0,0.0,91,0.00,CLR,,0.00,WeatherDisplay:10.37,2013-05-02 06:42:00,
2013-05-02 02:47:00,56.2,53.6,29.65,ESE,104,2.0,2.0,91,0.00,CLR,,0.00,WeatherDisplay:10.37,2013-05-02 06:47:00,
2013-05-02 02:52:00,56.2,53.9,29.65,ESE,102,2.3,2.3,92,0.00,CLR,,0.00,WeatherDisplay:10.37,2013-05-02 06:52:00,
2013-05-02 02:57:00,56.0,53.7,29.64,ENE,78,2.3,2.3,92,0.00,CLR,,0.00,WeatherDisplay:10.37,2013-05-02 06:57:00,
2013-05-02 03:02:00,56.0,53.7,29.64,East,80,0.0,0.0,92,0.00,CLR,,0.00,WeatherDisplay:10.37,2013-05-02 07:02:00,
2013-05-02 03:07:00,56.0,53.7,29.64,East,99,1.1,1.1,92,0.00,CLR,,0.00,WeatherDisplay:10.37,2013-05-02 07:07:00,
2013-05-02 03:12:00,56.0,53.7,29.64,ENE,72,0.0,0.0,92,0.00,CLR,,0.00,WeatherDisplay:10.37,2013-05-02 07:12:00,
2013-05-02 03:17:00,56.0,53.7,29.64,ENE,73,0.0,0.0,92,0.00,CLR,,0.00,WeatherDisplay:10.37,2013-05-02 07:17:00,
2013-05-02 03:22:00,56.0,53.7,29.64,East,79,1.0,1.0,92,0.00,CLR,,0.00,WeatherDisplay:10.37,2013-05-02 07:22:00,
2013-05-02 03:27:00,56.0,53.7,29.64,ESE,104,2.3,2.3,92,0.00,CLR,,0.00,WeatherDisplay:10.37,2013-05-02 07:27:00,
2013-05-02 03:32:00,56.0,54.0,29.64,ESE,104,0.0,0.0,93,0.00,CLR,,0.00,WeatherDisplay:10.37,2013-05-02 07:32:00,
2013-05-02 03:37:00,56.0,54.0,29.64,East,97,0.0,0.0,93,0.00,CLR,,0.00,WeatherDisplay:10.37,2013-05-02 07:37:00,
2013-05-02 03:42:00,55.9,53.9,29.64,East,79,0.0,0.0,93,0.00,CLR,,0.00,WeatherDisplay:10.37,2013-05-02 07:42:00,
2013-05-02 03:47:00,55.9,53.9,29.64,SE,124,3.5,3.5,93,0.00,CLR,,0.00,WeatherDisplay:10.37,2013-05-02 07:47:00,
2013-05-02 03:52:00,55.9,54.2,29.64,ESE,107,2.3,2.3,94,0.00,CLR,,0.00,WeatherDisplay:10.37,2013-05-02 07:52:00,
2013-05-02 03:57:00,55.9,54.2,29.64,ESE,103,0.0,0.0,94,0.00,CLR,,0.00,WeatherDisplay:10.37,2013-05-02 07:57:00,
2013-05-02 04:02:00,55.9,54.2,29.64,ESE,110,3.5,3.5,94,0.00,CLR,,0.00,WeatherDisplay:10.37,2013-05-02 08:02:00,
2013-05-02 04:07:00,55.9,54.2,29.64,ESE,121,2.3,2.3,94,0.00,CLR,,0.00,WeatherDisplay:10.37,2013-05-02 08:07:00,
2013-05-02 04:12:00,55.9,54.2,29.64,ESE,123,3.5,3.5,94,0.00,CLR,,0.00,WeatherDisplay:10.37,2013-05-02 08:12:00,
2013-05-02 04:17:00,55.9,54.5,29.64,ENE,61,3.5,0.0,95,0.00,CLR,,0.00,WeatherDisplay:10.37,2013-05-02 08:17:00,
2013-05-02 04:22:00,55.7,54.3,29.64,SE,131,4.6,4.6,95,0.00,CLR,,0.00,WeatherDisplay:10.37,2013-05-02 08:22:00,
2013-05-02 04:27:00,55.7,54.3,29.64,ESE,102,0.0,0.0,95,0.00,CLR,,0.00,WeatherDisplay:10.37,2013-05-02 08:27:00,
2013-05-02 04:32:00,55.7,54.3,29.64,ENE,65,0.0,1.0,95,0.00,CLR,,0.00,WeatherDisplay:10.37,2013-05-02 08:32:00,
2013-05-02 04:37:00,55.7,54.3,29.64,NNE,20,2.3,2.3,95,0.00,CLR,,0.00,WeatherDisplay:10.37,2013-05-02 08:37:00,
2013-05-02 04:42:00,55.7,54.3,29.64,ESE,102,1.0,1.0,95,0.00,CLR,,0.00,WeatherDisplay:10.37,2013-05-02 08:42:00,
2013-05-02 04:47:00,55.7,54.3,29.64,ENE,65,0.0,0.0,95,0.00,CLR,,0.00,WeatherDisplay:10.37,2013-05-02 08:47:00,
2013-05-02 04:52:00,55.7,54.3,29.64,ENE,73,4.6,4.6,95,0.00,CLR,,0.00,WeatherDisplay:10.37,2013-05-02 08:52:00,
2013-05-02 04:57:00,55.7,54.3,29.64,East,92,0.0,0.0,95,0.00,CLR,,0.00,WeatherDisplay:10.37,2013-05-02 08:57:00,
2013-05-02 05:02:00,55.7,54.3,29.64,NE,45,3.5,3.5,95,0.00,CLR,,0.00,WeatherDisplay:10.37,2013-05-02 09:02:00,
2013-05-02 05:07:00,55.7,54.3,29.64,ESE,106,0.0,0.0,95,0.00,CLR,,0.00,WeatherDisplay:10.37,2013-05-02 09:07:00,
2013-05-02 05:12:00,55.7,54.3,29.64,ESE,106,3.5,3.5,95,0.00,CLR,,0.00,WeatherDisplay:10.37,2013-05-02 09:12:00,
2013-05-02 05:17:00,55.7,54.3,29.64,SE,131,2.3,4.1,95,0.00,CLR,,0.00,WeatherDisplay:10.37,2013-05-02 09:17:00,
2013-05-02 05:22:00,55.7,54.6,29.64,East,95,2.3,2.3,96,0.00,CLR,,0.00,WeatherDisplay:10.37,2013-05-02 09:22:00,
2013-05-02 05:27:00,55.7,54.3,29.64,ESE,104,4.6,4.6,95,0.00,CLR,,0.00,WeatherDisplay:10.37,2013-05-02 09:27:00,
2013-05-02 05:32:00,55.6,54.5,29.64,NNE,28,4.6,4.6,96,0.00,CLR,,0.00,WeatherDisplay:10.37,2013-05-02 09:32:00,
2013-05-02 05:37:00,55.6,54.5,29.64,East,82,2.3,0.0,96,0.00,CLR,,0.00,WeatherDisplay:10.37,2013-05-02 09:37:00,
2013-05-02 05:42:00,55.6,54.5,29.64,ESE,102,0.0,0.0,96,0.00,CLR,,0.00,WeatherDisplay:10.37,2013-05-02 09:42:00,
2013-05-02 05:47:00,55.6,54.5,29.64,ESE,109,4.0,4.0,96,0.00,CLR,,0.00,WeatherDisplay:10.37,2013-05-02 09:47:00,
2013-05-02 05:52:00,55.6,54.5,29.64,ESE,109,1.1,0.0,96,0.00,CLR,,0.00,WeatherDisplay:10.37,2013-05-02 09:52:00,
2013-05-02 05:57:00,55.6,54.5,29.64,East,90,2.3,0.0,96,0.00,CLR,,0.00,WeatherDisplay:10.37,2013-05-02 09:57:00,
2013-05-02 06:02:00,55.6,54.5,29.64,East,93,3.0,3.0,96,0.00,CLR,,0.00,WeatherDisplay:10.37,2013-05-02 10:02:00,
2013-05-02 06:07:00,55.6,54.5,29.64,ESE,104,1.1,0.0,96,0.00,CLR,,0.00,WeatherDisplay:10.37,2013-05-02 10:07:00,
2013-05-02 06:12:00,55.4,54.3,29.64,ESE,104,0.0,0.0,96,0.00,CLR,,0.00,WeatherDisplay:10.37,2013-05-02 10:12:00,
2013-05-02 06:17:00,55.4,54.3,29.64,East,99,2.3,2.3,96,0.00,CLR,,0.00,WeatherDisplay:10.37,2013-05-02 10:17:00,
2013-05-02 06:22:00,55.4,54.3,29.64,NE,52,1.1,0.0,96,0.00,CLR,,0.00,WeatherDisplay:10.37,2013-05-02 10:22:00,
2013-05-02 06:27:00,55.4,54.3,29.65,ESE,117,2.0,2.0,96,0.00,CLR,,0.00,WeatherDisplay:10.37,2013-05-02 10:27:00,
2013-05-02 06:32:00,55.6,54.5,29.65,ESE,116,0.0,0.0,96,0.00,CLR,,0.00,WeatherDisplay:10.37,2013-05-02 10:32:00,
2013-05-02 06:37:00,55.6,54.5,29.65,ESE,104,2.3,2.3,96,0.00,CLR,,0.00,WeatherDisplay:10.37,2013-05-02 10:37:00,
2013-05-02 06:42:00,55.6,54.5,29.66,ENE,73,2.3,2.3,96,0.00,CLR,,0.00,WeatherDisplay:10.37,2013-05-02 10:42:00,
2013-05-02 06:47:00,55.6,54.5,29.66,East,92,2.3,2.3,96,0.00,CLR,,0.00,WeatherDisplay:10.37,2013-05-02 10:47:00,
2013-05-02 06:52:00,55.6,54.5,29.66,East,92,0.0,0.0,96,0.00,CLR,,0.00,WeatherDisplay:10.37,2013-05-02 10:52:00,
2013-05-02 06:57:00,55.6,54.5,29.65,ESE,113,0.0,0.0,96,0.00,CLR,,0.00,WeatherDisplay:10.37,2013-05-02 10:57:00,
2013-05-02 07:02:00,55.6,54.5,29.65,NNE,23,1.1,0.0,96,0.00,CLR,,0.00,WeatherDisplay:10.37,2013-05-02 11:02:00,
2013-05-02 07:07:00,55.6,54.5,29.65,East,99,2.0,2.0,96,0.00,CLR,,0.00,WeatherDisplay:10.37,2013-05-02 11:07:00,
2013-05-02 07:12:00,55.6,54.5,29.65,East,99,0.0,0.0,96,0.00,CLR,,0.00,WeatherDisplay:10.37,2013-05-02 11:12:00,
2013-05-02 07:17:00,55.7,54.6,29.65,East,96,0.0,0.0,96,0.00,CLR,,0.00,WeatherDisplay:10.37,2013-05-02 11:17:00,
2013-05-02 07:22:00,55.7,54.6,29.65,ENE,62,8.1,8.1,96,0.00,CLR,,0.00,WeatherDisplay:10.37,2013-05-02 11:22:00,
2013-05-02 07:27:00,55.7,54.6,29.66,ENE,76,0.0,0.0,96,0.00,CLR,,0.00,WeatherDisplay:10.37,2013-05-02 11:27:00,
2013-05-02 07:32:00,55.7,54.6,29.66,NE,42,3.5,3.5,96,0.00,CLR,,0.00,WeatherDisplay:10.37,2013-05-02 11:32:00,
2013-05-02 07:37:00,55.7,54.6,29.66,ENE,58,0.0,0.0,96,0.00,CLR,,0.00,WeatherDisplay:10.37,2013-05-02 11:37:00,
2013-05-02 07:42:00,55.7,54.6,29.66,East,96,2.0,2.3,96,0.00,CLR,,0.00,WeatherDisplay:10.37,2013-05-02 11:42:00,
2013-05-02 07:47:00,55.7,54.6,29.66,East,97,0.0,0.0,96,0.00,CLR,,0.00,WeatherDisplay:10.37,2013-05-02 11:47:00,
2013-05-02 07:52:00,55.7,54.6,29.66,ESE,104,0.0,0.0,96,0.00,CLR,,0.00,WeatherDisplay:10.37,2013-05-02 11:52:00,
2013-05-02 07:57:00,55.9,54.8,29.66,ENE,68,2.3,2.3,96,0.00,CLR,,0.00,WeatherDisplay:10.37,2013-05-02 11:57:00,
2013-05-02 08:02:00,55.9,54.8,29.66,NNE,13,2.3,2.3,96,0.00,CLR,,0.00,WeatherDisplay:10.37,2013-05-02 12:02:00,
2013-05-02 08:07:00,55.7,54.6,29.66,East,96,4.6,4.6,96,0.00,CLR,,0.00,WeatherDisplay:10.37,2013-05-02 12:07:00,
2013-05-02 08:12:00,55.7,54.6,29.66,NE,42,5.8,5.8,96,0.00,CLR,,0.00,WeatherDisplay:10.37,2013-05-02 12:12:00,
2013-05-02 08:17:00,55.7,54.6,29.66,NE,42,0.0,0.0,96,0.00,CLR,,0.00,WeatherDisplay:10.37,2013-05-02 12:17:00,
2013-05-02 08:23:00,55.6,54.5,29.66,East,83,2.3,2.3,96,0.00,CLR,,0.00,WeatherDisplay:10.37,2013-05-02 12:23:00,
2013-05-02 08:28:00,55.6,54.5,29.67,ESE,102,1.1,0.0,96,0.00,CLR,,0.00,WeatherDisplay:10.37,2013-05-02 12:28:00,
2013-05-02 08:33:00,55.7,54.6,29.67,ESE,106,0.0,0.9,96,0.00,CLR,,0.00,WeatherDisplay:10.37,2013-05-02 12:33:00,
2013-05-02 08:38:00,55.7,54.6,29.67,ESE,106,0.0,0.0,96,0.00,CLR,,0.00,WeatherDisplay:10.37,2013-05-02 12:38:00,
2013-05-02 08:43:00,55.7,54.6,29.67,East,96,3.5,3.5,96,0.00,CLR,,0.00,WeatherDisplay:10.37,2013-05-02 12:43:00,
2013-05-02 08:48:00,55.7,54.9,29.67,NE,51,1.0,1.0,97,0.00,CLR,,0.00,WeatherDisplay:10.37,2013-05-02 12:48:00,
2013-05-02 08:53:00,55.7,54.9,29.67,ENE,61,3.5,3.5,97,0.00,CLR,,0.00,WeatherDisplay:10.37,2013-05-02 12:53:00,
2013-05-02 08:58:00,55.7,54.6,29.67,NE,49,3.5,3.5,96,0.00,CLR,,0.00,WeatherDisplay:10.37,2013-05-02 12:58:00,
2013-05-02 09:03:00,55.7,54.9,29.67,East,89,4.6,4.6,97,0.00,CLR,,0.00,WeatherDisplay:10.37,2013-05-02 13:03:00,
2013-05-02 09:08:00,55.7,54.9,29.67,ENE,58,2.3,0.0,97,0.00,CLR,,0.00,WeatherDisplay:10.37,2013-05-02 13:08:00,
2013-05-02 09:13:00,55.7,54.9,29.68,NNE,25,0.0,0.0,97,0.00,CLR,,0.00,WeatherDisplay:10.37,2013-05-02 13:13:00,
2013-05-02 09:18:00,55.7,54.9,29.68,ENE,64,1.1,1.1,97,0.00,CLR,,0.00,WeatherDisplay:10.37,2013-05-02 13:18:00,
2013-05-02 09:23:00,55.9,55.1,29.68,NNE,20,2.3,0.0,97,0.00,CLR,,0.00,WeatherDisplay:10.37,2013-05-02 13:23:00,
2013-05-02 09:28:00,55.9,55.1,29.68,NE,49,1.1,0.0,97,0.00,CLR,,0.00,WeatherDisplay:10.37,2013-05-02 13:28:00,
2013-05-02 09:33:00,55.9,55.1,29.68,East,92,3.5,3.5,97,0.00,CLR,,0.00,WeatherDisplay:10.37,2013-05-02 13:33:00,
2013-05-02 09:38:00,55.9,55.1,29.68,ESE,110,0.0,2.1,97,0.00,CLR,,0.00,WeatherDisplay:10.37,2013-05-02 13:38:00,
2013-05-02 09:43:00,55.9,55.1,29.68,NE,45,8.1,8.1,97,0.00,CLR,,0.00,WeatherDisplay:10.37,2013-05-02 13:43:00,
2013-05-02 09:48:00,56.0,55.2,29.68,ENE,62,2.3,0.0,97,0.00,CLR,,0.00,WeatherDisplay:10.37,2013-05-02 13:48:00,
2013-05-02 09:53:00,56.0,55.2,29.68,NE,40,3.5,3.5,97,0.00,CLR,,0.00,WeatherDisplay:10.37,2013-05-02 13:53:00,
2013-05-02 09:58:00,55.9,55.1,29.68,East,80,1.1,0.0,97,0.00,CLR,,0.00,WeatherDisplay:10.37,2013-05-02 13:58:00,
2013-05-02 10:03:00,56.0,55.2,29.68,East,89,0.0,0.0,97,0.00,CLR,,0.00,WeatherDisplay:10.37,2013-05-02 14:03:00,
2013-05-02 10:08:00,56.2,55.4,29.68,SE,126,4.6,4.6,97,0.00,CLR,,0.00,WeatherDisplay:10.37,2013-05-02 14:08:00,
2013-05-02 10:13:00,56.0,55.2,29.68,ENE,62,0.0,0.0,97,0.00,CLR,,0.00,WeatherDisplay:10.37,2013-05-02 14:13:00,
2013-05-02 10:18:00,56.3,55.7,29.68,ENE,59,6.9,6.9,98,0.00,CLR,,0.00,WeatherDisplay:10.37,2013-05-02 14:18:00,
2013-05-02 10:23:00,56.3,55.7,29.68,ESE,104,2.3,2.3,98,0.00,CLR,,0.00,WeatherDisplay:10.37,2013-05-02 14:23:00,
2013-05-02 10:28:00,56.2,55.4,29.69,East,90,2.3,2.3,97,0.00,CLR,,0.00,WeatherDisplay:10.37,2013-05-02 14:28:00,
2013-05-02 10:33:00,56.3,55.5,29.69,East,97,2.3,2.3,97,0.00,CLR,,0.00,WeatherDisplay:10.37,2013-05-02 14:33:00,
2013-05-02 10:38:00,56.5,55.9,29.69,ESE,107,3.5,3.5,98,0.00,CLR,,0.00,WeatherDisplay:10.37,2013-05-02 14:38:00,
2013-05-02 10:43:00,56.5,55.9,29.69,East,90,0.0,0.0,98,0.00,CLR,,0.00,WeatherDisplay:10.37,2013-05-02 14:43:00,
2013-05-02 10:48:00,56.6,55.8,29.69,ENE,64,3.5,3.5,97,0.00,CLR,,0.00,WeatherDisplay:10.37,2013-05-02 14:48:00,
2013-05-02 10:53:00,56.9,56.1,29.69,ESE,110,2.3,2.3,97,0.00,CLR,,0.00,WeatherDisplay:10.37,2013-05-02 14:53:00,
2013-05-02 10:58:00,56.9,56.1,29.68,East,93,2.3,2.3,97,0.00,CLR,,0.00,WeatherDisplay:10.37,2013-05-02 14:58:00,
2013-05-02 11:03:00,56.9,56.1,29.68,East,88,1.1,0.0,97,0.00,CLR,,0.00,WeatherDisplay:10.37,2013-05-02 15:03:00,
2013-05-02 11:08:00,56.9,56.1,29.68,East,96,2.3,2.3,97,0.00,CLR,,0.00,WeatherDisplay:10.37,2013-05-02 15:08:00,
2013-05-02 11:13:00,56.7,55.9,29.68,ENE,71,2.3,2.3,97,0.00,CLR,,0.00,WeatherDisplay:10.37,2013-05-02 15:13:00,
2013-05-02 11:18:00,56.7,55.6,29.68,ESE,117,4.6,4.6,96,0.00,CLR,,0.00,WeatherDisplay:10.37,2013-05-02 15:18:00,
2013-05-02 11:23:00,56.9,56.1,29.68,ESE,102,1.1,1.1,97,0.01,RA,,0.01,WeatherDisplay:10.37,2013-05-02 15:23:00,
2013-05-02 11:28:00,56.7,55.6,29.68,ESE,121,3.5,3.5,96,0.01,RA,,0.01,WeatherDisplay:10.37,2013-05-02 15:28:00,
2013-05-02 11:33:00,56.7,55.6,29.68,NE,45,3.5,3.5,96,0.01,CLR,,0.01,WeatherDisplay:10.37,2013-05-02 15:33:00,
2013-05-02 11:38:00,57.0,55.9,29.68,NE,49,0.0,0.0,96,0.01,CLR,,0.01,WeatherDisplay:10.37,2013-05-02 15:38:00,
2013-05-02 11:43:00,57.3,56.2,29.68,East,97,3.5,3.5,96,0.01,CLR,,0.01,WeatherDisplay:10.37,2013-05-02 15:43:00,
2013-05-02 11:48:00,57.6,56.2,29.68,East,97,0.0,0.0,95,0.01,CLR,,0.01,WeatherDisplay:10.37,2013-05-02 15:48:00,
2013-05-02 11:53:00,57.6,55.9,29.68,ESE,102,2.3,2.3,94,0.01,CLR,,0.01,WeatherDisplay:10.37,2013-05-02 15:53:00,
2013-05-02 11:58:00,57.5,55.8,29.68,NE,44,5.8,5.8,94,0.01,CLR,,0.01,WeatherDisplay:10.37,2013-05-02 15:58:00,
2013-05-02 12:03:00,57.5,55.8,29.68,NNE,25,8.1,8.1,94,0.01,CLR,,0.01,WeatherDisplay:10.37,2013-05-02 16:03:00,
2013-05-02 12:08:00,57.3,55.3,29.68,ENE,73,2.3,2.3,93,0.01,CLR,,0.01,WeatherDisplay:10.37,2013-05-02 16:08:00,
2013-05-02 12:13:00,57.2,55.5,29.69,ESE,113,1.1,1.1,94,0.01,CLR,,0.01,WeatherDisplay:10.37,2013-05-02 16:13:00,
2013-05-02 12:18:00,57.2,55.5,29.69,ESE,117,3.0,3.0,94,0.01,CLR,,0.01,WeatherDisplay:10.37,2013-05-02 16:18:00,
2013-05-02 12:23:00,57.2,55.2,29.69,ESE,110,1.0,2.3,93,0.00,CLR,,0.01,WeatherDisplay:10.37,2013-05-02 16:23:00,
2013-05-02 12:28:00,57.5,55.5,29.69,ESE,110,0.0,0.0,93,0.00,CLR,,0.01,WeatherDisplay:10.37,2013-05-02 16:28:00,
2013-05-02 12:33:00,58.0,56.0,29.69,ESE,110,3.5,3.5,93,0.00,CLR,,0.01,WeatherDisplay:10.37,2013-05-02 16:33:00,
2013-05-02 12:38:00,58.3,56.0,29.69,NNE,30,1.1,0.0,92,0.00,CLR,,0.01,WeatherDisplay:10.37,2013-05-02 16:38:00,
2013-05-02 12:43:00,58.3,56.0,29.68,NE,40,0.0,0.0,92,0.00,CLR,,0.01,WeatherDisplay:10.37,2013-05-02 16:43:00,
2013-05-02 12:48:00,58.3,55.7,29.68,NNE,24,0.0,0.0,91,0.00,CLR,,0.01,WeatherDisplay:10.37,2013-05-02 16:48:00,
2013-05-02 12:53:00,58.4,55.8,29.68,NE,41,11.5,11.5,91,0.00,CLR,,0.01,WeatherDisplay:10.37,2013-05-02 16:53:00,
2013-05-02 12:58:00,58.4,55.5,29.68,East,100,1.1,1.1,90,0.00,CLR,,0.01,WeatherDisplay:10.37,2013-05-02 16:58:00,
2013-05-02 13:03:00,58.7,55.5,29.68,ESE,110,6.9,6.9,89,0.00,CLR,,0.01,WeatherDisplay:10.37,2013-05-02 17:03:00,
2013-05-02 13:08:00,59.2,55.6,29.68,ESE,120,0.0,0.0,88,0.00,CLR,,0.01,WeatherDisplay:10.37,2013-05-02 17:08:00,
2013-05-02 13:13:00,59.6,56.0,29.68,NE,55,0.0,0.0,88,0.00,CLR,,0.01,WeatherDisplay:10.37,2013-05-02 17:13:00,
2013-05-02 13:18:00,59.5,55.6,29.68,NE,56,10.4,10.4,87,0.00,CLR,,0.01,WeatherDisplay:10.37,2013-05-02 17:18:00,
2013-05-02 13:23:00,59.2,55.0,29.68,ENE,75,4.6,4.6,86,0.00,CLR,,0.01,WeatherDisplay:10.37,2013-05-02 17:23:00,
2013-05-02 13:28:00,59.0,54.8,29.67,SE,136,3.5,3.5,86,0.00,CLR,,0.01,WeatherDisplay:10.37,2013-05-02 17:28:00,
2013-05-02 13:33:00,59.3,55.1,29.67,ENE,75,3.5,3.5,86,0.00,CLR,,0.01,WeatherDisplay:10.37,2013-05-02 17:33:00,
2013-05-02 13:38:00,59.3,55.1,29.67,East,90,4.6,4.6,86,0.00,CLR,,0.01,WeatherDisplay:10.37,2013-05-02 17:38:00,
2013-05-02 13:43:00,59.5,55.0,29.68,East,90,6.9,6.9,85,0.00,CLR,,0.01,WeatherDisplay:10.37,2013-05-02 17:43:00,
2013-05-02 13:48:00,59.8,55.3,29.68,NE,34,2.3,2.4,85,0.00,CLR,,0.01,WeatherDisplay:10.37,2013-05-02 17:48:00,
2013-05-02 13:53:00,60.1,55.2,29.68,East,79,0.0,0.0,84,0.00,CLR,,0.01,WeatherDisplay:10.37,2013-05-02 17:53:00,
2013-05-02 13:58:00,60.1,55.2,29.67,NE,45,8.1,8.1,84,0.00,CLR,,0.01,WeatherDisplay:10.37,2013-05-02 17:58:00,
2013-05-02 14:03:00,59.8,55.3,29.67,East,92,3.0,3.0,85,0.00,CLR,,0.01,WeatherDisplay:10.37,2013-05-02 18:03:00,
2013-05-02 14:08:00,59.5,55.0,29.67,NE,54,7.0,7.0,85,0.00,CLR,,0.01,WeatherDisplay:10.37,2013-05-02 18:08:00,
2013-05-02 14:13:00,59.6,55.1,29.67,ESE,107,2.3,2.3,85,0.00,CLR,,0.01,WeatherDisplay:10.37,2013-05-02 18:13:00,
2013-05-02 14:18:00,59.6,55.1,29.67,ENE,76,3.5,3.5,85,0.00,CLR,,0.01,WeatherDisplay:10.37,2013-05-02 18:18:00,
2013-05-02 14:23:00,59.8,55.3,29.67,ENE,65,0.0,0.0,85,0.00,CLR,,0.01,WeatherDisplay:10.37,2013-05-02 18:23:00,
2013-05-02 14:28:00,59.9,55.4,29.67,NE,52,2.0,2.0,85,0.00,CLR,,0.01,WeatherDisplay:10.37,2013-05-02 18:28:00,
2013-05-02 14:33:00,59.8,55.3,29.67,ENE,69,10.4,10.4,85,0.00,CLR,,0.01,WeatherDisplay:10.37,2013-05-02 18:33:00,
2013-05-02 14:38:00,59.5,55.0,29.67,NE,38,2.3,2.3,85,0.00,CLR,,0.01,WeatherDisplay:10.37,2013-05-02 18:38:00,
2013-05-02 14:43:00,59.5,55.3,29.67,SE,140,1.0,0.0,86,0.00,CLR,,0.01,WeatherDisplay:10.37,2013-05-02 18:43:00,
2013-05-02 14:48:00,59.5,55.0,29.67,East,100,0.0,0.9,85,0.00,CLR,,0.01,WeatherDisplay:10.37,2013-05-02 18:48:00,
2013-05-02 14:53:00,59.6,55.4,29.67,ESE,102,1.1,1.1,86,0.00,CLR,,0.01,WeatherDisplay:10.37,2013-05-02 18:53:00,
2013-05-02 14:58:00,59.8,55.3,29.67,East,80,3.5,3.5,85,0.00,CLR,,0.01,WeatherDisplay:10.37,2013-05-02 18:58:00,
2013-05-02 15:03:00,59.8,55.3,29.67,NE,44,3.5,3.5,85,0.00,CLR,,0.01,WeatherDisplay:10.37,2013-05-02 19:03:00,
2013-05-02 15:08:00,59.6,54.8,29.67,NE,37,5.8,5.8,84,0.00,CLR,,0.01,WeatherDisplay:10.37,2013-05-02 19:08:00,
2013-05-02 15:13:00,59.6,54.8,29.67,ENE,69,2.3,0.0,84,0.00,CLR,,0.01,WeatherDisplay:10.37,2013-05-02 19:13:00,
2013-05-02 15:18:00,59.8,55.0,29.67,ENE,58,0.0,0.0,84,0.00,CLR,,0.01,WeatherDisplay:10.37,2013-05-02 19:18:00,
2013-05-02 15:23:00,60.1,55.2,29.67,NE,42,2.3,0.0,84,0.00,CLR,,0.01,WeatherDisplay:10.37,2013-05-02 19:23:00,
2013-05-02 15:28:00,60.1,54.9,29.66,NE,35,5.8,5.8,83,0.00,CLR,,0.01,WeatherDisplay:10.37,2013-05-02 19:28:00,
2013-05-02 15:33:00,60.2,55.0,29.66,ENE,71,4.6,4.6,83,0.00,CLR,,0.01,WeatherDisplay:10.37,2013-05-02 19:33:00,
2013-05-02 15:38:00,60.4,54.9,29.66,ESE,109,3.5,3.5,82,0.00,CLR,,0.01,WeatherDisplay:10.37,2013-05-02 19:38:00,
2013-05-02 15:43:00,60.5,54.6,29.66,ESE,109,2.3,2.3,81,0.00,CLR,,0.01,WeatherDisplay:10.37,2013-05-02 19:43:00,
2013-05-02 15:48:00,60.7,54.5,29.66,ESE,123,0.0,0.0,80,0.00,CLR,,0.01,WeatherDisplay:10.37,2013-05-02 19:48:00,
2013-05-02 15:53:00,60.5,54.6,29.66,SE,134,2.3,2.3,81,0.00,CLR,,0.01,WeatherDisplay:10.37,2013-05-02 19:53:00,
2013-05-02 15:58:00,60.5,54.6,29.65,NNE,30,5.8,0.0,81,0.00,CLR,,0.01,WeatherDisplay:10.37,2013-05-02 19:58:00,
2013-05-02 16:03:00,60.4,54.5,29.65,East,93,2.3,2.3,81,0.00,CLR,,0.01,WeatherDisplay:10.37,2013-05-02 20:03:00,
2013-05-02 16:08:00,60.5,54.6,29.65,NE,56,0.0,0.2,81,0.00,CLR,,0.01,WeatherDisplay:10.37,2013-05-02 20:08:00,
2013-05-02 16:13:00,60.7,54.8,29.65,NE,41,0.0,0.3,81,0.00,CLR,,0.01,WeatherDisplay:10.37,2013-05-02 20:13:00,
2013-05-02 16:18:00,60.9,55.0,29.65,ESE,121,3.5,3.5,81,0.00,CLR,,0.01,WeatherDisplay:10.37,2013-05-02 20:18:00,
2013-05-02 16:23:00,60.7,54.5,29.65,NNE,17,2.3,2.3,80,0.00,CLR,,0.01,WeatherDisplay:10.37,2013-05-02 20:23:00,
2013-05-02 16:29:00,60.5,54.3,29.64,East,93,4.6,4.6,80,0.00,CLR,,0.01,WeatherDisplay:10.37,2013-05-02 20:29:00,
2013-05-02 16:34:00,60.7,54.5,29.64,SE,130,0.0,0.0,80,0.00,CLR,,0.01,WeatherDisplay:10.37,2013-05-02 20:34:00,
2013-05-02 16:39:00,61.0,54.8,29.64,East,89,3.5,0.0,80,0.00,CLR,,0.01,WeatherDisplay:10.37,2013-05-02 20:39:00,
2013-05-02 16:44:00,61.0,54.8,29.64,ESE,102,3.5,0.0,80,0.00,CLR,,0.01,WeatherDisplay:10.37,2013-05-02 20:44:00,
2013-05-02 16:49:00,61.0,54.8,29.64,East,100,0.0,0.0,80,0.00,CLR,,0.01,WeatherDisplay:10.37,2013-05-02 20:49:00,
2013-05-02 16:54:00,61.0,54.8,29.64,ESE,110,1.1,0.0,80,0.00,CLR,,0.01,WeatherDisplay:10.37,2013-05-02 20:54:00,
2013-05-02 16:59:00,60.9,54.7,29.64,NE,44,8.1,8.1,80,0.00,CLR,,0.01,WeatherDisplay:10.37,2013-05-02 20:59:00,
2013-05-02 17:04:00,60.7,54.5,29.64,NE,51,10.4,10.4,80,0.00,CLR,,0.01,WeatherDisplay:10.37,2013-05-02 21:04:00,
2013-05-02 17:09:00,60.5,54.3,29.64,NE,48,5.8,5.8,80,0.00,CLR,,0.01,WeatherDisplay:10.37,2013-05-02 21:09:00,
2013-05-02 17:14:00,60.5,54.6,29.63,North,4,2.0,2.0,81,0.00,CLR,,0.01,WeatherDisplay:10.37,2013-05-02 21:14:00,
2013-05-02 17:19:00,60.5,55.0,29.63,NE,41,3.5,3.5,82,0.00,CLR,,0.01,WeatherDisplay:10.37,2013-05-02 21:19:00,
2013-05-02 17:24:00,60.5,54.6,29.63,NE,48,2.3,0.0,81,0.00,CLR,,0.01,WeatherDisplay:10.37,2013-05-02 21:24:00,
2013-05-02 17:29:00,60.5,54.6,29.63,NNE,13,5.0,5.0,81,0.00,CLR,,0.01,WeatherDisplay:10.37,2013-05-02 21:29:00,
2013-05-02 17:34:00,60.5,54.3,29.63,ESE,113,0.0,0.0,80,0.00,CLR,,0.01,WeatherDisplay:10.37,2013-05-02 21:34:00,
2013-05-02 17:39:00,60.7,54.1,29.63,ESE,113,0.0,0.0,79,0.00,CLR,,0.01,WeatherDisplay:10.37,2013-05-02 21:39:00,
2013-05-02 17:44:00,60.5,54.0,29.63,NE,52,3.5,3.5,79,0.00,CLR,,0.01,WeatherDisplay:10.37,2013-05-02 21:44:00,
2013-05-02 17:49:00,60.5,54.0,29.63,NE,52,0.0,0.0,79,0.00,CLR,,0.01,WeatherDisplay:10.37,2013-05-02 21:49:00,
2013-05-02 17:54:00,60.5,54.3,29.63,NE,52,0.0,0.0,80,0.00,CLR,,0.01,WeatherDisplay:10.37,2013-05-02 21:54:00,
2013-05-02 17:59:00,60.5,54.3,29.62,NE,52,0.0,0.0,80,0.00,CLR,,0.01,WeatherDisplay:10.37,2013-05-02 21:59:00,
2013-05-02 18:04:00,60.5,54.3,29.62,NNE,24,0.0,0.0,80,0.00,CLR,,0.01,WeatherDisplay:10.37,2013-05-02 22:04:00,
2013-05-02 18:09:00,60.5,54.3,29.62,NNE,25,1.1,0.0,80,0.00,CLR,,0.01,WeatherDisplay:10.37,2013-05-02 22:09:00,
2013-05-02 18:14:00,60.7,54.8,29.62,NNE,25,0.0,0.0,81,0.00,CLR,,0.01,WeatherDisplay:10.37,2013-05-02 22:14:00,
2013-05-02 18:19:00,60.7,54.5,29.62,North,354,0.0,0.0,80,0.00,CLR,,0.01,WeatherDisplay:10.37,2013-05-02 22:19:00,
2013-05-02 18:24:00,60.7,54.5,29.62,North,0,2.3,2.3,80,0.00,CLR,,0.01,WeatherDisplay:10.37,2013-05-02 22:24:00,
2013-05-02 18:29:00,60.7,54.5,29.62,North,0,0.0,0.0,80,0.00,CLR,,0.01,WeatherDisplay:10.37,2013-05-02 22:29:00,
2013-05-02 18:34:00,60.7,54.5,29.62,North,10,3.5,3.5,80,0.00,CLR,,0.01,WeatherDisplay:10.37,2013-05-02 22:34:00,
2013-05-02 18:39:00,60.7,54.8,29.62,North,10,0.0,0.0,81,0.00,CLR,,0.01,WeatherDisplay:10.37,2013-05-02 22:39:00,
2013-05-02 18:44:00,60.7,54.8,29.61,NNE,16,0.0,0.0,81,0.00,CLR,,0.01,WeatherDisplay:10.37,2013-05-02 22:44:00,
2013-05-02 18:49:00,60.7,54.8,29.61,NNE,13,0.0,0.0,81,0.00,CLR,,0.01,WeatherDisplay:10.37,2013-05-02 22:49:00,
2013-05-02 18:54:00,60.9,55.0,29.61,NNE,13,0.0,0.0,81,0.00,CLR,,0.01,WeatherDisplay:10.37,2013-05-02 22:54:00,
2013-05-02 18:59:00,61.0,55.1,29.61,NNE,13,0.0,0.0,81,0.00,CLR,,0.01,WeatherDisplay:10.37,2013-05-02 22:59:00,
2013-05-02 19:04:00,61.0,55.1,29.61,West,274,0.0,0.0,81,0.00,CLR,,0.01,WeatherDisplay:10.37,2013-05-02 23:04:00,
2013-05-02 19:09:00,61.0,55.1,29.61,NNW,337,0.0,0.0,81,0.00,CLR,,0.01,WeatherDisplay:10.37,2013-05-02 23:09:00,
2013-05-02 19:14:00,61.0,55.1,29.61,North,350,0.0,0.0,81,0.00,CLR,,0.01,WeatherDisplay:10.37,2013-05-02 23:14:00,
2013-05-02 19:19:00,61.0,55.1,29.61,North,350,0.0,0.0,81,0.00,CLR,,0.01,WeatherDisplay:10.37,2013-05-02 23:19:00,
2013-05-02 19:24:00,60.9,55.4,29.61,North,350,0.0,0.0,82,0.00,CLR,,0.01,WeatherDisplay:10.37,2013-05-02 23:24:00,
2013-05-02 19:29:00,60.9,55.4,29.61,North,350,0.0,0.0,82,0.00,CLR,,0.01,WeatherDisplay:10.37,2013-05-02 23:29:00,
2013-05-02 19:34:00,60.7,55.2,29.61,North,352,0.0,0.0,82,0.00,CLR,,0.01,WeatherDisplay:10.37,2013-05-02 23:34:00,
2013-05-02 19:39:00,60.7,55.2,29.61,North,352,0.0,0.0,82,0.00,CLR,,0.01,WeatherDisplay:10.37,2013-05-02 23:39:00,
2013-05-02 19:44:00,60.5,55.3,29.61,North,352,0.0,0.0,83,0.00,CLR,,0.01,WeatherDisplay:10.37,2013-05-02 23:44:00,
2013-05-02 19:49:00,60.5,55.3,29.61,North,352,0.0,0.0,83,0.00,CLR,,0.01,WeatherDisplay:10.37,2013-05-02 23:49:00,
2013-05-02 19:54:00,60.4,55.2,29.61,North,352,0.0,0.0,83,0.00,CLR,,0.01,WeatherDisplay:10.37,2013-05-02 23:54:00,
2013-05-02 19:59:00,60.1,54.9,29.60,North,352,0.0,0.0,83,0.00,CLR,,0.01,WeatherDisplay:10.37,2013-05-02 23:59:00,
2013-05-02 20:04:00,59.9,55.1,29.60,North,352,0.0,0.0,84,0.00,CLR,,0.01,WeatherDisplay:10.37,2013-05-03 00:04:00,
2013-05-02 20:09:00,59.8,55.0,29.60,North,352,0.0,0.0,84,0.00,CLR,,0.01,WeatherDisplay:10.37,2013-05-03 00:09:00,
2013-05-02 20:14:00,59.6,54.8,29.60,North,352,0.0,0.0,84,0.00,CLR,,0.01,WeatherDisplay:10.37,2013-05-03 00:14:00,
2013-05-02 20:19:00,59.5,55.0,29.60,North,352,0.0,0.0,85,0.00,CLR,,0.01,WeatherDisplay:10.37,2013-05-03 00:19:00,
2013-05-02 20:24:00,59.3,54.8,29.60,North,352,0.0,0.0,85,0.00,CLR,,0.01,WeatherDisplay:10.37,2013-05-03 00:24:00,
2013-05-02 20:29:00,59.3,54.8,29.61,North,352,0.0,0.0,85,0.00,CLR,,0.01,WeatherDisplay:10.37,2013-05-03 00:29:00,
2013-05-02 20:34:00,59.2,54.7,29.61,North,0,0.0,0.0,85,0.00,CLR,,0.01,WeatherDisplay:10.37,2013-05-03 00:34:00,
2013-05-02 20:39:00,59.2,54.7,29.61,North,0,2.3,2.3,85,0.00,CLR,,0.01,WeatherDisplay:10.37,2013-05-03 00:39:00,
2013-05-02 20:44:00,59.0,54.5,29.61,North,0,0.0,0.0,85,0.00,CLR,,0.01,WeatherDisplay:10.37,2013-05-03 00:44:00,
2013-05-02 20:49:00,58.9,54.4,29.61,North,0,0.0,0.0,85,0.00,CLR,,0.01,WeatherDisplay:10.37,2013-05-03 00:49:00,
2013-05-02 20:54:00,58.6,54.4,29.61,NE,51,0.0,0.0,86,0.00,CLR,,0.01,WeatherDisplay:10.37,2013-05-03 00:54:00,
2013-05-02 20:59:00,58.4,53.9,29.61,ENE,58,1.1,0.0,85,0.00,CLR,,0.01,WeatherDisplay:10.37,2013-05-03 00:59:00,
2013-05-02 21:04:00,58.3,53.8,29.61,ENE,58,0.0,0.0,85,0.00,CLR,,0.01,WeatherDisplay:10.37,2013-05-03 01:04:00,
2013-05-02 21:09:00,58.0,53.5,29.61,ENE,58,0.0,0.0,85,0.00,CLR,,0.01,WeatherDisplay:10.37,2013-05-03 01:09:00,
2013-05-02 21:14:00,57.8,53.0,29.62,East,88,2.3,2.3,84,0.00,CLR,,0.01,WeatherDisplay:10.37,2013-05-03 01:14:00,
2013-05-02 21:19:00,57.6,52.8,29.62,East,88,0.0,0.0,84,0.00,CLR,,0.01,WeatherDisplay:10.37,2013-05-03 01:19:00,
2013-05-02 21:24:00,57.6,52.1,29.62,East,93,1.1,0.0,82,0.00,CLR,,0.01,WeatherDisplay:10.37,2013-05-03 01:24:00,
2013-05-02 21:29:00,57.6,51.8,29.62,East,93,0.0,0.0,81,0.00,CLR,,0.01,WeatherDisplay:10.37,2013-05-03 01:29:00,
2013-05-02 21:34:00,57.6,51.8,29.62,East,93,1.1,1.1,81,0.00,CLR,,0.01,WeatherDisplay:10.37,2013-05-03 01:34:00,
2013-05-02 21:39:00,57.3,51.5,29.62,East,93,0.0,0.0,81,0.00,CLR,,0.01,WeatherDisplay:10.37,2013-05-03 01:39:00,
2013-05-02 21:44:00,57.0,51.2,29.63,ESE,102,2.3,0.0,81,0.00,CLR,,0.01,WeatherDisplay:10.37,2013-05-03 01:44:00,
2013-05-02 21:49:00,56.9,51.1,29.63,ESE,102,2.3,2.3,81,0.00,CLR,,0.01,WeatherDisplay:10.37,2013-05-03 01:49:00,
2013-05-02 21:54:00,56.7,50.9,29.63,ESE,102,0.0,0.0,81,0.00,CLR,,0.01,WeatherDisplay:10.37,2013-05-03 01:54:00,
2013-05-02 21:59:00,56.5,50.7,29.63,ESE,102,0.0,0.0,81,0.00,CLR,,0.01,WeatherDisplay:10.37,2013-05-03 01:59:00,
2013-05-02 22:04:00,56.3,50.9,29.63,ESE,102,0.0,0.0,82,0.00,CLR,,0.01,WeatherDisplay:10.37,2013-05-03 02:04:00,
2013-05-02 22:09:00,56.0,50.6,29.63,ESE,113,4.6,4.6,82,0.00,CLR,,0.01,WeatherDisplay:10.37,2013-05-03 02:09:00,
2013-05-02 22:14:00,55.9,50.5,29.63,ESE,113,0.0,0.0,82,0.00,CLR,,0.01,WeatherDisplay:10.37,2013-05-03 02:14:00,
2013-05-02 22:19:00,55.7,50.3,29.63,ESE,113,0.0,0.0,82,0.00,CLR,,0.01,WeatherDisplay:10.37,2013-05-03 02:19:00,
2013-05-02 22:24:00,55.6,50.2,29.63,ESE,113,0.0,0.0,82,0.00,CLR,,0.01,WeatherDisplay:10.37,2013-05-03 02:24:00,
2013-05-02 22:29:00,55.4,50.3,29.63,NNE,16,0.0,0.4,83,0.00,CLR,,0.01,WeatherDisplay:10.37,2013-05-03 02:29:00,
2013-05-02 22:34:00,55.3,50.2,29.63,NE,55,1.1,0.0,83,0.00,CLR,,0.01,WeatherDisplay:10.37,2013-05-03 02:34:00,
2013-05-02 22:39:00,55.1,50.0,29.63,NE,48,3.5,3.5,83,0.00,CLR,,0.01,WeatherDisplay:10.37,2013-05-03 02:39:00,
2013-05-02 22:44:00,55.0,49.9,29.63,ENE,72,0.0,0.0,83,0.00,CLR,,0.01,WeatherDisplay:10.37,2013-05-03 02:44:00,
2013-05-02 22:49:00,54.7,49.6,29.63,ESE,106,0.0,0.0,83,0.00,CLR,,0.01,WeatherDisplay:10.37,2013-05-03 02:49:00,
2013-05-02 22:54:00,54.5,49.8,29.63,East,96,1.1,0.0,84,0.00,CLR,,0.01,WeatherDisplay:10.37,2013-05-03 02:54:00,
2013-05-02 22:59:00,54.4,49.7,29.63,East,96,2.3,0.0,84,0.00,CLR,,0.01,WeatherDisplay:10.37,2013-05-03 02:59:00,
2013-05-02 23:04:00,54.1,49.7,29.63,East,97,0.0,0.0,85,0.00,CLR,,0.01,WeatherDisplay:10.37,2013-05-03 03:04:00,
2013-05-02 23:09:00,53.9,49.5,29.63,East,97,0.0,0.0,85,0.00,CLR,,0.01,WeatherDisplay:10.37,2013-05-03 03:09:00,
2013-05-02 23:14:00,53.8,49.4,29.62,East,97,0.0,0.0,85,0.00,CLR,,0.01,WeatherDisplay:10.37,2013-05-03 03:14:00,
2013-05-02 23:19:00,53.6,49.5,29.62,East,97,1.1,0.0,86,0.00,CLR,,0.01,WeatherDisplay:10.37,2013-05-03 03:19:00,
2013-05-02 23:24:00,53.5,49.4,29.62,East,97,0.0,0.0,86,0.00,CLR,,0.01,WeatherDisplay:10.37,2013-05-03 03:24:00,
2013-05-02 23:29:00,53.3,49.2,29.62,East,97,0.0,0.0,86,0.00,CLR,,0.01,WeatherDisplay:10.37,2013-05-03 03:29:00,
2013-05-02 23:34:00,53.2,49.1,29.62,East,97,0.0,0.0,86,0.00,CLR,,0.01,WeatherDisplay:10.37,2013-05-03 03:34:00,
2013-05-02 23:39:00,52.9,49.1,29.62,East,97,0.0,0.0,87,0.00,CLR,,0.01,WeatherDisplay:10.37,2013-05-03 03:39:00,
2013-05-02 23:44:00,52.9,49.1,29.62,East,97,0.0,0.0,87,0.00,CLR,,0.01,WeatherDisplay:10.37,2013-05-03 03:44:00,
2013-05-02 23:49:00,52.8,49.0,29.62,East,97,0.0,0.0,87,0.00,CLR,,0.01,WeatherDisplay:10.37,2013-05-03 03:49:00,
2013-05-02 23:54:00,52.5,49.0,29.62,East,97,0.0,0.0,88,0.00,CLR,,0.01,WeatherDisplay:10.37,2013-05-03 03:54:00,
2013-05-02 23:59:00,52.3,48.9,29.62,East,97,0.0,0.0,88,0.00,CLR,,0.01,WeatherDisplay:10.37,2013-05-03 03:59:00,